createdAt,value
2023-01-23T00:01:33.848Z,96132.97
2023-01-23T00:04:01.656Z,96126.25
2023-01-23T00:06:29.483Z,96122.66
2023-01-23T00:08:57.741Z,96133.31
2023-01-23T00:11:30.279Z,96141.88
2023-01-23T00:13:59.284Z,96139.56
2023-01-23T00:16:30.228Z,96144.50
2023-01-23T00:18:57.819Z,96137.59
2023-01-23T00:21:27.896Z,96145.97
2023-01-23T00:23:57.164Z,96153.22
2023-01-23T00:26:28.291Z,96149.78
2023-01-23T00:28:56.903Z,96162.94
2023-01-23T00:31:30.882Z,96165.72
2023-01-23T00:34:00.517Z,96162.59
2023-01-23T00:36:30.904Z,96163.75
2023-01-23T00:38:58.147Z,96171.50
2023-01-23T00:41:25.845Z,96168.56
2023-01-23T00:43:54.851Z,96165.75
2023-01-23T00:46:23.316Z,96174.81
2023-01-23T00:48:51.601Z,96167.06
2023-01-23T00:51:20.049Z,96169.53
2023-01-23T00:53:47.592Z,96171.50
2023-01-23T00:56:15.432Z,96160.66
2023-01-23T00:58:45.032Z,96171.50
2023-01-23T01:01:15.598Z,96175.47
2023-01-23T01:03:44.149Z,96178.75
2023-01-23T01:06:12.789Z,96184.50
2023-01-23T01:08:40.762Z,96197.19
2023-01-23T01:11:08.902Z,96189.13
2023-01-23T01:13:36.689Z,96188.81
2023-01-23T01:16:04.670Z,96165.28
2023-01-23T01:18:31.904Z,96173.00
2023-01-23T01:20:59.753Z,96175.81
2023-01-23T01:23:27.279Z,96181.06
2023-01-23T01:26:00.444Z,96177.78
2023-01-23T01:28:30.550Z,96178.44
2023-01-23T01:30:58.607Z,96170.69
2023-01-23T01:33:28.504Z,96185.00
2023-01-23T01:35:57.020Z,96180.91
2023-01-23T01:38:24.632Z,96182.84
2023-01-23T01:40:52.884Z,96188.97
2023-01-23T01:43:26.901Z,96188.47
2023-01-23T01:56:24.003Z,96200.13
2023-01-23T01:59:49.590Z,96193.72
2023-01-23T02:02:50.628Z,96189.94
2023-01-23T02:05:24.304Z,96195.38
2023-01-23T02:08:00.414Z,96192.09
2023-01-23T02:10:28.011Z,96189.47
2023-01-23T02:12:58.504Z,96194.22
2023-01-23T02:15:26.079Z,96200.31
2023-01-23T02:17:55.095Z,96200.16
2023-01-23T02:20:26.030Z,96182.38
2023-01-23T02:22:54.119Z,96202.13
2023-01-23T02:26:06.021Z,96194.53
2023-01-23T02:28:43.226Z,96188.94
2023-01-23T02:31:12.944Z,96179.06
2023-01-23T02:33:40.209Z,96179.53
2023-01-23T02:36:09.212Z,96179.53
2023-01-23T02:38:44.624Z,96194.53
2023-01-23T02:41:16.054Z,96195.84
2023-01-23T02:43:43.525Z,96199.66
2023-01-23T02:46:12.703Z,96201.63
2023-01-23T02:48:40.321Z,96195.34
2023-01-23T02:51:08.027Z,96195.84
2023-01-23T02:53:35.356Z,96209.34
2023-01-23T02:56:02.848Z,96194.53
2023-01-23T02:58:48.604Z,96209.84
2023-01-23T03:01:16.224Z,96219.50
2023-01-23T03:03:43.593Z,96218.72
2023-01-23T03:06:12.044Z,96223.50
2023-01-23T03:08:47.846Z,96212.31
2023-01-23T03:11:18.600Z,96207.06
2023-01-23T03:13:47.343Z,96210.69
2023-01-23T03:16:15.755Z,96199.50
2023-01-23T03:18:53.923Z,96210.34
2023-01-23T03:21:22.251Z,96202.78
2023-01-23T03:23:49.556Z,96214.59
2023-01-23T03:26:18.634Z,96208.00
2023-01-23T03:29:06.119Z,96205.69
2023-01-23T03:31:33.770Z,96215.53
2023-01-23T03:34:01.439Z,96229.47
2023-01-23T03:36:30.548Z,96229.09
2023-01-23T03:39:17.305Z,96242.22
2023-01-23T03:41:45.937Z,96246.56
2023-01-23T03:44:13.448Z,96245.91
2023-01-23T03:46:41.699Z,96248.84
2023-01-23T03:49:08.989Z,96257.72
2023-01-23T03:51:36.550Z,96252.47
2023-01-23T03:54:03.808Z,96246.72
2023-01-23T03:56:33.554Z,96242.97
2023-01-23T03:59:01.460Z,96249.22
2023-01-23T04:01:29.176Z,96254.13
2023-01-23T04:03:56.372Z,96264.31
2023-01-23T04:06:25.016Z,96261.69
2023-01-23T04:08:52.248Z,96246.22
2023-01-23T04:11:20.384Z,96267.47
2023-01-23T04:13:47.572Z,96263.88
2023-01-23T04:16:15.910Z,96263.06
2023-01-23T04:18:43.088Z,96274.84
2023-01-23T04:21:11.042Z,96269.47
2023-01-23T04:23:40.568Z,96273.03
2023-01-23T04:26:08.189Z,96262.34
2023-01-23T04:28:35.543Z,96277.97
2023-01-23T04:31:05.230Z,96268.59
2023-01-23T04:33:34.374Z,96268.13
2023-01-23T04:36:05.834Z,96269.59
2023-01-23T04:38:35.093Z,96284.75
2023-01-23T04:41:20.819Z,96275.34
2023-01-23T04:43:48.209Z,96282.06
2023-01-23T04:46:16.427Z,96273.66
2023-01-23T04:49:12.800Z,96285.56
2023-01-23T04:51:40.899Z,96283.75
2023-01-23T04:54:09.069Z,96276.19
2023-01-23T04:56:36.614Z,96286.03
2023-01-23T04:59:05.489Z,96294.25
2023-01-23T05:01:33.580Z,96289.81
2023-01-23T05:04:03.530Z,96283.09
2023-01-23T05:06:31.734Z,96291.69
2023-01-23T05:08:59.622Z,96301.91
2023-01-23T05:11:34.430Z,96282.31
2023-01-23T05:14:02.154Z,96300.28
2023-01-23T05:16:32.524Z,96304.28
2023-01-23T05:19:18.560Z,96299.63
2023-01-23T05:21:46.612Z,96311.53
2023-01-23T05:24:17.477Z,96317.44
2023-01-23T05:26:46.138Z,96309.03
2023-01-23T05:29:14.007Z,96309.91
2023-01-23T05:31:50.310Z,96304.97
2023-01-23T05:34:35.811Z,96313.03
2023-01-23T05:37:05.521Z,96325.56
2023-01-23T05:39:35.381Z,96327.38
2023-01-23T05:42:03.123Z,96326.75
2023-01-23T05:44:50.499Z,96330.66
2023-01-23T05:47:36.845Z,96332.00
2023-01-23T05:50:15.270Z,96331.38
2023-01-23T05:52:44.774Z,96334.50
2023-01-23T05:55:12.344Z,96339.94
2023-01-23T05:57:42.117Z,96330.06
2023-01-23T06:00:28.149Z,96342.25
2023-01-23T06:03:18.342Z,96346.03
2023-01-23T06:05:52.268Z,96335.78
2023-01-23T06:08:20.625Z,96350.13
2023-01-23T06:10:48.058Z,96354.72
2023-01-23T06:13:16.327Z,96334.16
2023-01-23T06:15:43.577Z,96347.16
2023-01-23T06:18:14.193Z,96346.34
2023-01-23T06:20:41.434Z,96346.84
2023-01-23T06:23:09.271Z,96353.91
2023-01-23T06:25:37.923Z,96354.28
2023-01-23T06:28:10.541Z,96362.03
2023-01-23T06:30:38.071Z,96363.34
2023-01-23T06:33:13.454Z,96366.31
2023-01-23T06:35:42.347Z,96357.25
2023-01-23T06:38:10.663Z,96370.63
2023-01-23T06:40:38.804Z,96365.84
2023-01-23T06:43:42.200Z,96360.44
2023-01-23T06:46:16.227Z,96360.09
2023-01-23T06:48:44.088Z,96362.25
2023-01-23T06:51:12.149Z,96368.50
2023-01-23T06:53:42.885Z,96374.25
2023-01-23T06:56:13.024Z,96364.72
2023-01-23T06:58:44.530Z,96365.53
2023-01-23T07:01:20.550Z,96366.38
2023-01-23T07:04:20.298Z,96367.19
2023-01-23T07:06:50.752Z,96365.88
2023-01-23T07:09:20.135Z,96374.59
2023-01-23T07:12:07.631Z,96369.69
2023-01-23T07:14:35.450Z,96386.47
2023-01-23T07:17:03.063Z,96390.75
2023-01-23T07:19:31.766Z,96370.66
2023-01-23T07:22:01.329Z,96380.41
2023-01-23T07:24:30.259Z,96375.13
2023-01-23T07:26:57.376Z,96381.38
2023-01-23T07:29:25.139Z,96387.63
2023-01-23T07:31:53.220Z,96373.97
2023-01-23T07:34:20.935Z,96388.13
2023-01-23T07:36:48.144Z,96372.31
2023-01-23T07:39:16.366Z,96399.47
2023-01-23T07:41:46.119Z,96387.47
2023-01-23T07:44:19.475Z,96396.19
2023-01-23T07:46:50.402Z,96384.34
2023-01-23T07:49:18.113Z,96404.09
2023-01-23T07:51:45.609Z,96396.53
2023-01-23T07:54:13.301Z,96397.03
2023-01-23T07:56:40.589Z,96396.69
2023-01-23T07:59:08.230Z,96402.31
2023-01-23T08:01:35.453Z,96407.38
2023-01-23T08:04:03.199Z,96402.13
2023-01-23T08:06:30.375Z,96407.72
2023-01-23T08:08:57.887Z,96417.44
2023-01-23T08:11:26.706Z,96413.47
2023-01-23T08:13:55.832Z,96420.41
2023-01-23T08:16:23.075Z,96418.94
2023-01-23T08:18:50.649Z,96420.25
2023-01-23T08:21:18.866Z,96415.13
2023-01-23T08:23:46.677Z,96414.63
2023-01-23T08:26:16.341Z,96408.19
2023-01-23T08:28:45.662Z,96412.31
2023-01-23T08:31:14.178Z,96421.72
2023-01-23T08:33:42.663Z,96409.22
2023-01-23T08:36:12.811Z,96413.16
2023-01-23T08:38:40.775Z,96405.09
2023-01-23T08:41:11.723Z,96420.41
2023-01-23T08:43:41.905Z,96409.88
2023-01-23T08:46:10.224Z,96410.88
2023-01-23T08:48:38.446Z,96419.25
2023-01-23T08:51:09.234Z,96421.38
2023-01-23T08:53:37.274Z,96425.69
2023-01-23T08:56:16.469Z,96427.34
2023-01-23T08:58:45.464Z,96423.56
2023-01-23T09:01:14.595Z,96435.41
2023-01-23T09:03:42.229Z,96410.38
2023-01-23T09:06:11.414Z,96439.53
2023-01-23T09:08:39.211Z,96442.97
2023-01-23T09:11:08.974Z,96448.22
2023-01-23T09:13:37.318Z,96432.56
2023-01-23T09:16:08.438Z,96444.19
2023-01-23T09:18:36.665Z,96441.41
2023-01-23T09:21:13.190Z,96442.84
2023-01-23T09:23:40.999Z,96443.66
2023-01-23T09:26:13.467Z,96432.91
2023-01-23T09:28:43.239Z,96436.34
2023-01-23T09:31:13.544Z,96435.38
2023-01-23T09:33:42.245Z,96417.03
2023-01-23T09:36:10.339Z,96432.16
2023-01-23T09:38:38.397Z,96437.94
2023-01-23T09:41:18.620Z,96433.22
2023-01-23T09:44:02.037Z,96435.03
2023-01-23T09:46:37.421Z,96437.34
2023-01-23T09:49:08.438Z,96430.72
2023-01-23T09:51:39.221Z,96434.81
2023-01-23T09:54:35.228Z,96422.31
2023-01-23T09:57:11.870Z,96415.19
2023-01-23T09:59:58.280Z,96415.16
2023-01-23T10:02:27.234Z,96413.78
2023-01-23T10:04:58.396Z,96422.59
2023-01-23T10:07:49.942Z,96426.13
2023-01-23T10:10:32.046Z,96421.66
2023-01-23T10:13:12.107Z,96405.69
2023-01-23T10:15:42.824Z,96424.03
2023-01-23T10:18:42.305Z,96413.75
2023-01-23T10:21:31.326Z,96415.69
2023-01-23T10:24:05.212Z,96415.50
2023-01-23T10:26:46.698Z,96423.53
2023-01-23T10:29:37.037Z,96417.16
2023-01-23T10:32:17.368Z,96415.44
2023-01-23T10:35:00.358Z,96411.63
2023-01-23T10:37:41.380Z,96408.50
2023-01-23T10:40:17.587Z,96407.03
2023-01-23T10:42:46.240Z,96406.31
2023-01-23T10:45:19.299Z,96404.44
2023-01-23T10:47:54.671Z,96396.59
2023-01-23T10:50:40.877Z,96390.97
2023-01-23T10:53:21.237Z,96401.47
2023-01-23T10:55:52.230Z,96394.78
2023-01-23T10:58:40.406Z,96385.34
2023-01-23T11:01:30.335Z,96382.16
2023-01-23T11:04:09.480Z,96378.94
2023-01-23T11:06:38.444Z,96373.22
2023-01-23T11:09:20.396Z,96376.84
2023-01-23T11:12:04.966Z,96377.75
2023-01-23T11:14:34.415Z,96370.78
2023-01-23T11:17:23.112Z,96375.78
2023-01-23T11:19:54.675Z,96374.38
2023-01-23T11:22:36.946Z,96370.38
2023-01-23T11:25:38.364Z,96367.22
2023-01-23T11:28:27.267Z,96370.09
2023-01-23T11:31:15.806Z,96363.13
2023-01-23T11:34:00.357Z,96363.81
2023-01-23T11:37:15.505Z,96360.00
2023-01-23T11:39:55.076Z,96356.38
2023-01-23T11:42:28.558Z,96355.19
2023-01-23T11:45:00.419Z,96356.44
2023-01-23T11:47:47.443Z,96349.91
2023-01-23T11:50:35.413Z,96347.94
2023-01-23T11:53:42.832Z,96347.88
2023-01-23T11:56:11.190Z,96342.97
2023-01-23T11:58:56.398Z,96339.50
2023-01-23T12:01:29.817Z,96339.69
2023-01-23T12:04:34.643Z,96340.31
2023-01-23T12:07:16.963Z,96339.09
2023-01-23T12:09:56.535Z,96330.50
2023-01-23T12:12:51.470Z,96336.25
2023-01-23T12:15:38.600Z,96334.38
2023-01-23T12:18:25.093Z,96336.00
2023-01-23T12:21:06.243Z,96340.09
2023-01-23T12:23:57.082Z,96324.97
2023-01-23T12:26:28.007Z,96339.09
2023-01-23T12:29:23.369Z,96317.19
2023-01-23T12:32:04.309Z,96336.84
2023-01-23T12:34:37.366Z,96338.03
2023-01-23T12:37:29.053Z,96331.28
2023-01-23T12:40:23.367Z,96334.97
2023-01-23T12:43:17.685Z,96334.91
2023-01-23T12:45:51.975Z,96339.66
2023-01-23T12:48:28.457Z,96338.81
2023-01-23T12:51:29.511Z,96351.91
2023-01-23T12:54:05.726Z,96347.41
2023-01-23T12:56:39.994Z,96331.06
2023-01-23T12:59:30.389Z,96342.31
2023-01-23T13:02:05.965Z,96341.44
2023-01-23T13:04:45.628Z,96334.25
2023-01-23T13:07:44.695Z,96333.41
2023-01-23T13:11:02.972Z,96330.13
2023-01-23T13:13:31.282Z,96337.66
2023-01-23T13:16:03.718Z,96348.31
2023-01-23T13:18:51.069Z,96336.19
2023-01-23T13:21:37.619Z,96340.88
2023-01-23T13:24:41.740Z,96330.06
2023-01-23T13:27:45.148Z,96334.81
2023-01-23T13:30:31.768Z,96338.22
2023-01-23T13:33:01.986Z,96342.91
2023-01-23T13:35:47.916Z,96330.41
2023-01-23T13:38:21.280Z,96340.88
2023-01-23T13:41:04.580Z,96339.44
2023-01-23T13:43:50.432Z,96345.75
2023-01-23T13:46:26.857Z,96340.03
2023-01-23T14:21:56.280Z,96350.97
2023-01-23T14:24:30.993Z,96350.63
2023-01-23T14:27:09.557Z,96350.34
2023-01-23T14:29:37.870Z,96342.44
2023-01-23T14:32:05.698Z,96354.09
2023-01-23T14:34:39.527Z,96346.94
2023-01-23T14:37:12.074Z,96337.09
2023-01-23T14:39:40.960Z,96349.31
2023-01-23T14:42:23.618Z,96344.28
2023-01-23T14:44:52.567Z,96358.63
2023-01-23T14:47:34.477Z,96352.75
2023-01-23T14:50:03.930Z,96358.06
2023-01-23T14:52:31.955Z,96349.94
2023-01-23T14:55:07.745Z,96348.84
2023-01-23T14:57:36.896Z,96345.38
2023-01-23T15:00:05.135Z,96341.25
2023-01-23T15:02:35.588Z,96352.75
2023-01-23T15:05:27.265Z,96354.66
2023-01-23T15:08:07.496Z,96355.22
2023-01-23T15:10:47.038Z,96355.22
2023-01-23T15:13:40.788Z,96364.13
2023-01-23T15:16:31.948Z,96368.59
2023-01-23T15:19:18.929Z,96360.31
2023-01-23T15:21:46.635Z,96368.97
2023-01-23T15:24:14.275Z,96365.63
2023-01-23T15:26:44.155Z,96361.59
2023-01-23T15:29:12.071Z,96366.44
2023-01-23T15:31:39.745Z,96370.75
2023-01-23T15:34:16.728Z,96372.66
2023-01-23T15:36:55.216Z,96365.22
2023-01-23T15:39:28.509Z,96359.13
2023-01-23T15:41:59.496Z,96365.63
2023-01-23T15:44:29.697Z,96366.75
2023-01-23T15:47:01.374Z,96375.81
2023-01-23T15:49:30.146Z,96379.75
2023-01-23T15:52:03.001Z,96375.72
2023-01-23T15:54:36.360Z,96380.03
2023-01-23T15:57:08.888Z,96372.81
2023-01-23T15:59:37.537Z,96381.00
2023-01-23T16:02:08.197Z,96383.66
2023-01-23T16:04:39.027Z,96386.69
2023-01-23T16:07:08.227Z,96388.72
2023-01-23T16:09:40.711Z,96381.75
2023-01-23T16:12:16.829Z,96383.13
2023-01-23T16:14:44.620Z,96381.50
2023-01-23T16:17:17.048Z,96373.47
2023-01-23T16:19:45.540Z,96391.38
2023-01-23T16:22:29.480Z,96391.25
2023-01-23T16:24:58.621Z,96375.72
2023-01-23T16:27:27.855Z,96391.25
2023-01-23T16:29:56.721Z,96392.44
2023-01-23T16:32:25.435Z,96392.44
2023-01-23T16:34:53.216Z,96400.19
2023-01-23T16:37:20.748Z,96384.22
2023-01-23T16:39:48.532Z,96403.50
2023-01-23T16:42:22.166Z,96399.63
2023-01-23T16:44:50.836Z,96400.03
2023-01-23T16:47:18.268Z,96400.19
2023-01-23T16:49:52.639Z,96395.72
2023-01-23T16:52:24.499Z,96398.56
2023-01-23T16:54:54.229Z,96390.00
2023-01-23T16:57:22.125Z,96401.88
2023-01-23T16:59:50.899Z,96400.19
2023-01-23T17:02:26.304Z,96402.50
2023-01-23T17:04:54.753Z,96407.16
2023-01-23T17:07:22.209Z,96409.19
2023-01-23T17:09:50.281Z,96398.47
2023-01-23T17:12:27.792Z,96404.31
2023-01-23T17:14:56.615Z,96410.81
2023-01-23T17:17:33.634Z,96406.22
2023-01-23T17:20:05.555Z,96406.78
2023-01-23T17:22:40.241Z,96399.91
2023-01-23T17:25:15.570Z,96384.56
2023-01-23T17:27:45.579Z,96398.66
2023-01-23T17:30:19.819Z,96398.72
2023-01-23T17:32:52.836Z,96390.88
2023-01-23T17:35:24.583Z,96396.16
2023-01-23T17:37:52.449Z,96396.09
2023-01-23T17:40:20.637Z,96408.53
2023-01-23T17:42:47.928Z,96409.06
2023-01-23T17:45:20.435Z,96407.06
2023-01-23T17:47:50.609Z,96408.72
2023-01-23T17:50:21.204Z,96408.19
2023-01-23T17:52:49.756Z,96415.41
2023-01-23T17:55:24.175Z,96418.06
2023-01-23T17:57:51.941Z,96414.75
2023-01-23T18:00:21.257Z,96404.97
2023-01-23T18:02:57.077Z,96406.25
2023-01-23T18:05:25.812Z,96415.38
2023-01-23T18:07:54.636Z,96410.81
2023-01-23T18:10:24.749Z,96403.97
2023-01-23T18:13:04.393Z,96410.16
2023-01-23T18:15:57.719Z,96403.50
2023-01-23T18:18:34.140Z,96415.28
2023-01-23T18:21:05.011Z,96398.69
2023-01-23T18:23:37.190Z,96406.00
2023-01-23T18:26:13.616Z,96422.44
2023-01-23T18:29:18.558Z,96421.78
2023-01-23T18:32:04.405Z,96415.88
2023-01-23T18:35:09.221Z,96422.16
2023-01-23T18:37:55.278Z,96422.53
2023-01-23T18:40:28.766Z,96417.59
2023-01-23T18:43:27.533Z,96426.81
2023-01-23T18:45:56.590Z,96419.53
2023-01-23T18:48:25.978Z,96428.28
2023-01-23T18:51:33.649Z,96416.94
2023-01-23T18:54:24.789Z,96417.97
2023-01-23T18:57:10.617Z,96420.16
2023-01-23T18:59:41.070Z,96422.19
2023-01-23T19:02:27.416Z,96421.06
2023-01-23T19:05:19.817Z,96420.06
2023-01-23T19:07:49.712Z,96420.81
2023-01-23T19:10:26.120Z,96427.19
2023-01-23T19:13:06.549Z,96414.31
2023-01-23T19:15:47.007Z,96425.81
2023-01-23T19:18:43.463Z,96427.28
2023-01-23T19:21:26.928Z,96423.81
2023-01-23T19:24:09.808Z,96428.72
2023-01-23T19:26:39.687Z,96436.44
2023-01-23T19:29:20.873Z,96433.56
2023-01-23T19:32:03.509Z,96441.09
2023-01-23T19:34:34.413Z,96435.97
2023-01-23T19:37:02.919Z,96437.59
2023-01-23T19:39:31.053Z,96437.97
2023-01-23T19:41:59.493Z,96427.94
2023-01-23T19:44:30.132Z,96438.78
2023-01-23T19:46:58.217Z,96445.47
2023-01-23T19:49:25.698Z,96441.53
2023-01-23T19:51:53.567Z,96446.75
2023-01-23T19:54:23.960Z,96445.28
2023-01-23T19:56:52.404Z,96445.13
2023-01-23T19:59:21.201Z,96430.94
2023-01-23T20:01:52.611Z,96435.25
2023-01-23T20:04:22.774Z,96451.50
2023-01-23T20:06:52.319Z,96445.13
2023-01-23T20:09:20.159Z,96455.09
2023-01-23T20:11:48.195Z,96445.66
2023-01-23T20:14:15.974Z,96445.31
2023-01-23T20:16:43.907Z,96444.28
2023-01-23T20:19:16.726Z,96439.38
2023-01-23T20:21:46.464Z,96455.72
2023-01-23T20:24:15.331Z,96455.28
2023-01-23T20:26:43.207Z,96446.44
2023-01-23T20:29:11.843Z,96449.59
2023-01-23T20:31:39.748Z,96457.91
2023-01-23T20:34:07.555Z,96451.16
2023-01-23T20:36:35.280Z,96460.19
2023-01-23T20:39:03.889Z,96448.94
2023-01-23T20:41:31.895Z,96458.72
2023-01-23T20:43:59.230Z,96460.66
2023-01-23T20:46:27.479Z,96450.53
2023-01-23T20:48:55.955Z,96462.19
2023-01-23T20:51:23.879Z,96458.00
2023-01-23T20:53:51.379Z,96463.03
2023-01-23T20:56:27.855Z,96464.41
2023-01-23T20:59:15.345Z,96473.00
2023-01-23T21:02:22.515Z,96468.03
2023-01-23T21:04:51.839Z,96470.91
2023-01-23T21:07:22.432Z,96476.72
2023-01-23T21:09:49.990Z,96479.50
2023-01-23T21:12:17.690Z,96470.53
2023-01-23T21:14:45.243Z,96477.19
2023-01-23T21:17:13.234Z,96465.31
2023-01-23T21:19:40.964Z,96464.03
2023-01-23T21:22:08.824Z,96464.69
2023-01-23T21:24:37.175Z,96463.31
2023-01-23T21:27:06.206Z,96462.75
2023-01-23T21:29:34.295Z,96470.91
2023-01-23T21:32:01.985Z,96453.53
2023-01-23T21:34:29.379Z,96476.94
2023-01-23T21:36:57.107Z,96474.38
2023-01-23T21:39:24.318Z,96475.66
2023-01-23T21:41:51.880Z,96481.31
2023-01-23T21:44:19.328Z,96482.88
2023-01-23T21:46:47.155Z,96480.09
2023-01-23T21:49:14.361Z,96484.59
2023-01-23T21:51:42.017Z,96474.81
2023-01-23T21:54:09.309Z,96484.69
2023-01-23T21:56:37.055Z,96483.88
2023-01-23T21:59:04.322Z,96477.94
2023-01-23T22:01:32.704Z,96480.75
2023-01-23T22:04:06.958Z,96485.78
2023-01-23T22:06:36.102Z,96476.72
2023-01-23T22:09:04.065Z,96477.09
2023-01-23T22:11:31.899Z,96478.94
2023-01-23T22:13:59.348Z,96474.28
2023-01-23T22:16:46.331Z,96457.47
2023-01-23T22:19:16.282Z,96464.69
2023-01-23T22:21:46.569Z,96465.69
2023-01-23T22:24:15.341Z,96466.44
2023-01-23T22:26:43.331Z,96462.41
2023-01-23T22:29:12.646Z,96466.03
2023-01-23T22:31:40.378Z,96465.16
2023-01-23T22:34:07.626Z,96457.75
2023-01-23T22:36:35.206Z,96458.56
2023-01-23T22:39:02.412Z,96460.19
2023-01-23T22:41:29.945Z,96441.31
2023-01-23T22:43:59.478Z,96462.19
2023-01-23T22:46:28.645Z,96456.47
2023-01-23T22:48:55.863Z,96458.28
2023-01-23T22:51:25.869Z,96471.91
2023-01-23T22:53:54.655Z,96479.22
2023-01-23T22:56:23.592Z,96469.41
2023-01-23T22:58:53.239Z,96476.38
2023-01-23T23:01:23.188Z,96462.59
2023-01-23T23:03:50.952Z,96478.41
2023-01-23T23:06:19.432Z,96469.16
2023-01-23T23:08:47.951Z,96471.53
2023-01-23T23:11:17.691Z,96480.41
2023-01-23T23:13:45.799Z,96475.34
2023-01-23T23:16:14.662Z,96466.13
2023-01-23T23:18:42.085Z,96459.94
2023-01-23T23:21:12.513Z,96463.13
2023-01-23T23:23:43.010Z,96460.28
2023-01-23T23:26:11.675Z,96464.50
2023-01-23T23:28:39.316Z,96466.78
2023-01-23T23:31:08.992Z,96463.13
2023-01-23T23:33:36.353Z,96465.13
2023-01-23T23:36:04.536Z,96470.44
2023-01-23T23:38:31.784Z,96457.81
2023-01-23T23:41:05.276Z,96471.00
2023-01-23T23:43:33.166Z,96468.41
2023-01-23T23:46:03.767Z,96463.28
2023-01-23T23:48:32.113Z,96469.84
2023-01-23T23:51:00.781Z,96476.59
2023-01-23T23:53:28.464Z,96479.25
2023-01-23T23:55:56.104Z,96472.94
2023-01-23T23:58:24.121Z,96468.84
